sensor_id;sensor_type;location;lat;lon;timestamp;temperature;humidity
30379;DHT22;17168;49.164;9.060;2023-02-15T00:02:16;4.40;80.60
30379;DHT22;17168;49.164;9.060;2023-02-15T00:04:48;4.30;81.00
30379;DHT22;17168;49.164;9.060;2023-02-15T00:07:20;4.30;81.10
30379;DHT22;17168;49.164;9.060;2023-02-15T00:09:52;4.30;81.30
30379;DHT22;17168;49.164;9.060;2023-02-15T00:12:23;4.30;81.20
30379;DHT22;17168;49.164;9.060;2023-02-15T00:14:55;4.30;81.30
30379;DHT22;17168;49.164;9.060;2023-02-15T00:17:30;4.20;81.30
30379;DHT22;17168;49.164;9.060;2023-02-15T00:20:02;4.20;81.50
30379;DHT22;17168;49.164;9.060;2023-02-15T00:22:34;4.20;81.80
30379;DHT22;17168;49.164;9.060;2023-02-15T00:25:06;4.20;82.00
30379;DHT22;17168;49.164;9.060;2023-02-15T00:27:38;4.20;82.20
30379;DHT22;17168;49.164;9.060;2023-02-15T00:30:10;4.20;82.50
30379;DHT22;17168;49.164;9.060;2023-02-15T00:32:45;4.20;82.30
30379;DHT22;17168;49.164;9.060;2023-02-15T00:35:18;4.20;82.30
30379;DHT22;17168;49.164;9.060;2023-02-15T00:37:50;4.20;82.60
30379;DHT22;17168;49.164;9.060;2023-02-15T00:40:23;4.20;82.80
30379;DHT22;17168;49.164;9.060;2023-02-15T00:42:55;4.20;83.00
30379;DHT22;17168;49.164;9.060;2023-02-15T00:45:27;4.10;83.10
30379;DHT22;17168;49.164;9.060;2023-02-15T00:48:02;4.10;83.30
30379;DHT22;17168;49.164;9.060;2023-02-15T00:50:33;4.10;83.50
30379;DHT22;17168;49.164;9.060;2023-02-15T00:53:05;4.10;83.70
30379;DHT22;17168;49.164;9.060;2023-02-15T00:55:37;4.10;83.90
30379;DHT22;17168;49.164;9.060;2023-02-15T00:58:11;4.10;84.00
30379;DHT22;17168;49.164;9.060;2023-02-15T01:00:44;4.10;84.20
30379;DHT22;17168;49.164;9.060;2023-02-15T01:03:19;4.10;84.30
30379;DHT22;17168;49.164;9.060;2023-02-15T01:05:51;4.10;84.40
30379;DHT22;17168;49.164;9.060;2023-02-15T01:08:23;4.10;84.50
30379;DHT22;17168;49.164;9.060;2023-02-15T01:10:55;4.10;84.60
30379;DHT22;17168;49.164;9.060;2023-02-15T01:13:27;4.10;84.80
30379;DHT22;17168;49.164;9.060;2023-02-15T01:15:58;4.00;84.90
30379;DHT22;17168;49.164;9.060;2023-02-15T01:18:34;4.00;84.80
30379;DHT22;17168;49.164;9.060;2023-02-15T01:21:11;4.00;85.00
30379;DHT22;17168;49.164;9.060;2023-02-15T01:23:45;3.90;85.20
30379;DHT22;17168;49.164;9.060;2023-02-15T01:26:17;3.90;85.40
30379;DHT22;17168;49.164;9.060;2023-02-15T01:28:49;3.90;85.60
30379;DHT22;17168;49.164;9.060;2023-02-15T01:31:21;3.90;85.80
30379;DHT22;17168;49.164;9.060;2023-02-15T01:33:56;3.90;85.80
30379;DHT22;17168;49.164;9.060;2023-02-15T01:36:28;3.90;86.00
30379;DHT22;17168;49.164;9.060;2023-02-15T01:39:00;3.80;86.10
30379;DHT22;17168;49.164;9.060;2023-02-15T01:41:32;3.80;86.30
30379;DHT22;17168;49.164;9.060;2023-02-15T01:47:09;3.80;86.80
30379;DHT22;17168;49.164;9.060;2023-02-15T01:49:47;3.80;86.60
30379;DHT22;17168;49.164;9.060;2023-02-15T01:52:19;3.80;86.90
30379;DHT22;17168;49.164;9.060;2023-02-15T01:54:51;3.70;86.90
30379;DHT22;17168;49.164;9.060;2023-02-15T01:57:26;3.70;87.10
30379;DHT22;17168;49.164;9.060;2023-02-15T02:00:01;3.70;87.30
30379;DHT22;17168;49.164;9.060;2023-02-15T02:02:34;3.70;87.40
30379;DHT22;17168;49.164;9.060;2023-02-15T02:05:09;3.70;87.50
30379;DHT22;17168;49.164;9.060;2023-02-15T02:07:43;3.70;87.80
30379;DHT22;17168;49.164;9.060;2023-02-15T02:10:18;3.70;87.80
30379;DHT22;17168;49.164;9.060;2023-02-15T02:12:53;3.70;87.90
30379;DHT22;17168;49.164;9.060;2023-02-15T02:15:29;3.70;88.10
30379;DHT22;17168;49.164;9.060;2023-02-15T02:24:12;3.70;88.50
30379;DHT22;17168;49.164;9.060;2023-02-15T02:30:06;3.70;88.60
30379;DHT22;17168;49.164;9.060;2023-02-15T02:36:08;3.70;88.70
30379;DHT22;17168;49.164;9.060;2023-02-15T02:41:50;3.80;88.80
30379;DHT22;17168;49.164;9.060;2023-02-15T02:44:28;3.80;88.90
30379;DHT22;17168;49.164;9.060;2023-02-15T02:47:08;3.80;88.80
30379;DHT22;17168;49.164;9.060;2023-02-15T02:49:42;3.80;89.00
30379;DHT22;17168;49.164;9.060;2023-02-15T02:52:42;3.80;88.90
30379;DHT22;17168;49.164;9.060;2023-02-15T02:55:17;3.80;89.20
30379;DHT22;17168;49.164;9.060;2023-02-15T02:57:54;3.80;89.00
30379;DHT22;17168;49.164;9.060;2023-02-15T03:00:30;3.80;89.10
30379;DHT22;17168;49.164;9.060;2023-02-15T03:03:08;3.80;89.10
30379;DHT22;17168;49.164;9.060;2023-02-15T03:05:45;3.80;89.20
30379;DHT22;17168;49.164;9.060;2023-02-15T03:08:24;3.80;89.20
30379;DHT22;17168;49.164;9.060;2023-02-15T03:11:00;3.80;89.30
30379;DHT22;17168;49.164;9.060;2023-02-15T03:13:34;3.70;89.20
30379;DHT22;17168;49.164;9.060;2023-02-15T03:16:07;3.70;89.40
30379;DHT22;17168;49.164;9.060;2023-02-15T03:19:02;3.70;89.50
30379;DHT22;17168;49.164;9.060;2023-02-15T03:21:41;3.70;89.50
30379;DHT22;17168;49.164;9.060;2023-02-15T03:24:20;3.70;89.50
30379;DHT22;17168;49.164;9.060;2023-02-15T03:26:54;3.70;89.60
30379;DHT22;17168;49.164;9.060;2023-02-15T03:29:28;3.70;89.60
30379;DHT22;17168;49.164;9.060;2023-02-15T03:32:03;3.70;89.70
30379;DHT22;17168;49.164;9.060;2023-02-15T03:34:36;3.70;89.80
30379;DHT22;17168;49.164;9.060;2023-02-15T03:37:13;3.70;89.90
30379;DHT22;17168;49.164;9.060;2023-02-15T03:39:54;3.70;90.00
30379;DHT22;17168;49.164;9.060;2023-02-15T03:42:30;3.70;90.00
30379;DHT22;17168;49.164;9.060;2023-02-15T03:45:07;3.70;90.00
30379;DHT22;17168;49.164;9.060;2023-02-15T03:47:43;3.70;90.00
30379;DHT22;17168;49.164;9.060;2023-02-15T03:50:19;3.70;90.00
30379;DHT22;17168;49.164;9.060;2023-02-15T03:53:14;3.70;90.00
30379;DHT22;17168;49.164;9.060;2023-02-15T03:55:52;3.70;90.00
30379;DHT22;17168;49.164;9.060;2023-02-15T03:58:25;3.70;90.10
30379;DHT22;17168;49.164;9.060;2023-02-15T04:01:20;3.70;90.00
30379;DHT22;17168;49.164;9.060;2023-02-15T04:04:18;3.70;90.10
30379;DHT22;17168;49.164;9.060;2023-02-15T04:06:51;3.60;90.10
30379;DHT22;17168;49.164;9.060;2023-02-15T04:09:23;3.70;90.10
30379;DHT22;17168;49.164;9.060;2023-02-15T04:12:16;3.70;90.10
30379;DHT22;17168;49.164;9.060;2023-02-15T04:14:48;3.70;90.00
30379;DHT22;17168;49.164;9.060;2023-02-15T04:17:39;3.60;89.80
30379;DHT22;17168;49.164;9.060;2023-02-15T04:20:11;3.60;89.60
30379;DHT22;17168;49.164;9.060;2023-02-15T04:23:03;3.60;89.60
30379;DHT22;17168;49.164;9.060;2023-02-15T04:25:55;3.60;89.60
30379;DHT22;17168;49.164;9.060;2023-02-15T04:28:30;3.60;89.70
30379;DHT22;17168;49.164;9.060;2023-02-15T04:31:02;3.60;90.00
30379;DHT22;17168;49.164;9.060;2023-02-15T04:33:34;3.60;90.00
30379;DHT22;17168;49.164;9.060;2023-02-15T04:36:07;3.50;90.00
30379;DHT22;17168;49.164;9.060;2023-02-15T04:38:39;3.50;90.00
30379;DHT22;17168;49.164;9.060;2023-02-15T04:41:11;3.50;90.10
30379;DHT22;17168;49.164;9.060;2023-02-15T04:43:47;3.50;90.10
30379;DHT22;17168;49.164;9.060;2023-02-15T04:46:19;3.40;90.10
30379;DHT22;17168;49.164;9.060;2023-02-15T04:48:51;3.40;90.20
30379;DHT22;17168;49.164;9.060;2023-02-15T04:51:24;3.40;90.20
30379;DHT22;17168;49.164;9.060;2023-02-15T04:53:56;3.40;90.20
30379;DHT22;17168;49.164;9.060;2023-02-15T04:56:28;3.40;90.20
30379;DHT22;17168;49.164;9.060;2023-02-15T04:59:04;3.40;90.20
30379;DHT22;17168;49.164;9.060;2023-02-15T05:01:36;3.40;90.30
30379;DHT22;17168;49.164;9.060;2023-02-15T05:04:08;3.40;90.30
30379;DHT22;17168;49.164;9.060;2023-02-15T05:06:41;3.30;90.30
30379;DHT22;17168;49.164;9.060;2023-02-15T05:09:13;3.40;90.30
30379;DHT22;17168;49.164;9.060;2023-02-15T05:11:45;3.40;90.30
30379;DHT22;17168;49.164;9.060;2023-02-15T05:14:20;3.40;90.40
30379;DHT22;17168;49.164;9.060;2023-02-15T05:16:52;3.40;90.30
30379;DHT22;17168;49.164;9.060;2023-02-15T05:19:26;3.40;90.30
30379;DHT22;17168;49.164;9.060;2023-02-15T05:21:57;3.40;90.30
30379;DHT22;17168;49.164;9.060;2023-02-15T05:24:29;3.40;90.60
30379;DHT22;17168;49.164;9.060;2023-02-15T05:27:20;3.40;90.30
30379;DHT22;17168;49.164;9.060;2023-02-15T05:30:14;3.40;90.30
30379;DHT22;17168;49.164;9.060;2023-02-15T05:32:46;3.30;90.40
30379;DHT22;17168;49.164;9.060;2023-02-15T05:35:18;3.30;90.40
30379;DHT22;17168;49.164;9.060;2023-02-15T05:37:50;3.30;90.50
30379;DHT22;17168;49.164;9.060;2023-02-15T05:40:22;3.30;90.50
30379;DHT22;17168;49.164;9.060;2023-02-15T05:42:54;3.30;90.60
30379;DHT22;17168;49.164;9.060;2023-02-15T05:45:30;3.30;90.60
30379;DHT22;17168;49.164;9.060;2023-02-15T05:48:02;3.30;90.60
30379;DHT22;17168;49.164;9.060;2023-02-15T05:50:34;3.30;90.60
30379;DHT22;17168;49.164;9.060;2023-02-15T05:53:06;3.30;90.70
30379;DHT22;17168;49.164;9.060;2023-02-15T05:55:38;3.30;90.70
30379;DHT22;17168;49.164;9.060;2023-02-15T05:58:10;3.30;90.70
30379;DHT22;17168;49.164;9.060;2023-02-15T06:00:45;3.20;90.70
30379;DHT22;17168;49.164;9.060;2023-02-15T06:03:17;3.20;90.60
30379;DHT22;17168;49.164;9.060;2023-02-15T06:05:49;3.20;90.60
30379;DHT22;17168;49.164;9.060;2023-02-15T06:08:21;3.20;90.70
30379;DHT22;17168;49.164;9.060;2023-02-15T06:10:53;3.20;90.70
30379;DHT22;17168;49.164;9.060;2023-02-15T06:13:25;3.20;90.80
30379;DHT22;17168;49.164;9.060;2023-02-15T06:16:00;3.20;90.70
30379;DHT22;17168;49.164;9.060;2023-02-15T06:18:33;3.20;90.70
30379;DHT22;17168;49.164;9.060;2023-02-15T06:21:05;3.20;90.80
30379;DHT22;17168;49.164;9.060;2023-02-15T06:23:37;3.20;90.80
30379;DHT22;17168;49.164;9.060;2023-02-15T06:26:09;3.20;90.70
30379;DHT22;17168;49.164;9.060;2023-02-15T06:28:41;3.10;90.70
30379;DHT22;17168;49.164;9.060;2023-02-15T06:31:16;3.10;90.80
30379;DHT22;17168;49.164;9.060;2023-02-15T06:33:48;3.20;90.80
30379;DHT22;17168;49.164;9.060;2023-02-15T06:36:20;3.20;90.80
30379;DHT22;17168;49.164;9.060;2023-02-15T06:38:52;3.20;90.80
30379;DHT22;17168;49.164;9.060;2023-02-15T06:41:24;3.20;90.70
30379;DHT22;17168;49.164;9.060;2023-02-15T06:43:56;3.20;90.60
30379;DHT22;17168;49.164;9.060;2023-02-15T06:46:31;3.20;90.60
30379;DHT22;17168;49.164;9.060;2023-02-15T06:49:03;3.20;90.60
30379;DHT22;17168;49.164;9.060;2023-02-15T06:51:35;3.20;90.60
30379;DHT22;17168;49.164;9.060;2023-02-15T06:54:07;3.20;90.70
30379;DHT22;17168;49.164;9.060;2023-02-15T06:56:39;3.20;90.60
30379;DHT22;17168;49.164;9.060;2023-02-15T06:59:11;3.20;90.70
30379;DHT22;17168;49.164;9.060;2023-02-15T07:01:45;3.20;90.80
30379;DHT22;17168;49.164;9.060;2023-02-15T07:04:18;3.20;90.90
30379;DHT22;17168;49.164;9.060;2023-02-15T07:06:50;3.20;90.90
30379;DHT22;17168;49.164;9.060;2023-02-15T07:09:25;3.20;91.00
30379;DHT22;17168;49.164;9.060;2023-02-15T07:11:57;3.20;91.00
30379;DHT22;17168;49.164;9.060;2023-02-15T07:14:47;3.20;91.00
30379;DHT22;17168;49.164;9.060;2023-02-15T07:17:22;3.20;90.90
30379;DHT22;17168;49.164;9.060;2023-02-15T07:20:14;3.20;90.90
30379;DHT22;17168;49.164;9.060;2023-02-15T07:22:47;3.10;91.00
30379;DHT22;17168;49.164;9.060;2023-02-15T07:25:19;3.20;91.20
30379;DHT22;17168;49.164;9.060;2023-02-15T07:27:56;3.10;91.20
30379;DHT22;17168;49.164;9.060;2023-02-15T07:30:28;3.20;91.30
30379;DHT22;17168;49.164;9.060;2023-02-15T07:33:03;3.20;91.30
30379;DHT22;17168;49.164;9.060;2023-02-15T07:35:56;3.20;91.30
30379;DHT22;17168;49.164;9.060;2023-02-15T07:38:31;3.20;91.20
30379;DHT22;17168;49.164;9.060;2023-02-15T07:41:05;3.20;91.20
30379;DHT22;17168;49.164;9.060;2023-02-15T07:43:39;3.20;91.30
30379;DHT22;17168;49.164;9.060;2023-02-15T07:46:14;3.20;91.30
30379;DHT22;17168;49.164;9.060;2023-02-15T07:48:49;3.20;91.30
30379;DHT22;17168;49.164;9.060;2023-02-15T07:51:21;3.20;91.30
30379;DHT22;17168;49.164;9.060;2023-02-15T07:53:53;3.20;91.40
30379;DHT22;17168;49.164;9.060;2023-02-15T07:56:25;3.20;91.30
30379;DHT22;17168;49.164;9.060;2023-02-15T07:58:57;3.20;91.40
30379;DHT22;17168;49.164;9.060;2023-02-15T08:01:31;3.20;91.50
30379;DHT22;17168;49.164;9.060;2023-02-15T08:04:07;3.20;91.80
30379;DHT22;17168;49.164;9.060;2023-02-15T08:06:41;3.10;91.70
30379;DHT22;17168;49.164;9.060;2023-02-15T08:09:13;3.10;91.70
30379;DHT22;17168;49.164;9.060;2023-02-15T08:11:47;3.20;91.80
30379;DHT22;17168;49.164;9.060;2023-02-15T08:14:20;3.20;91.60
30379;DHT22;17168;49.164;9.060;2023-02-15T08:16:55;3.20;91.70
30379;DHT22;17168;49.164;9.060;2023-02-15T08:19:31;3.20;91.70
30379;DHT22;17168;49.164;9.060;2023-02-15T08:22:05;3.20;91.80
30379;DHT22;17168;49.164;9.060;2023-02-15T08:24:38;3.20;91.80
30379;DHT22;17168;49.164;9.060;2023-02-15T08:27:10;3.20;92.00
30379;DHT22;17168;49.164;9.060;2023-02-15T08:29:42;3.20;92.10
30379;DHT22;17168;49.164;9.060;2023-02-15T08:32:14;3.20;92.10
30379;DHT22;17168;49.164;9.060;2023-02-15T08:34:49;3.20;92.20
30379;DHT22;17168;49.164;9.060;2023-02-15T08:37:21;3.20;92.20
30379;DHT22;17168;49.164;9.060;2023-02-15T08:39:53;3.20;92.20
30379;DHT22;17168;49.164;9.060;2023-02-15T08:42:26;3.30;92.20
30379;DHT22;17168;49.164;9.060;2023-02-15T08:44:57;3.30;92.20
30379;DHT22;17168;49.164;9.060;2023-02-15T08:47:29;3.30;92.10
30379;DHT22;17168;49.164;9.060;2023-02-15T08:50:04;3.30;92.10
30379;DHT22;17168;49.164;9.060;2023-02-15T08:52:36;3.30;92.10
30379;DHT22;17168;49.164;9.060;2023-02-15T08:55:08;3.30;92.20
30379;DHT22;17168;49.164;9.060;2023-02-15T08:57:41;3.40;92.40
30379;DHT22;17168;49.164;9.060;2023-02-15T09:00:17;3.40;92.50
30379;DHT22;17168;49.164;9.060;2023-02-15T09:02:50;3.40;92.60
30379;DHT22;17168;49.164;9.060;2023-02-15T09:05:24;3.40;92.60
30379;DHT22;17168;49.164;9.060;2023-02-15T09:07:56;3.40;92.70
30379;DHT22;17168;49.164;9.060;2023-02-15T09:10:28;3.40;92.80
30379;DHT22;17168;49.164;9.060;2023-02-15T09:13:00;3.40;92.80
30379;DHT22;17168;49.164;9.060;2023-02-15T09:15:32;3.50;92.80
30379;DHT22;17168;49.164;9.060;2023-02-15T09:18:04;3.50;92.80
30379;DHT22;17168;49.164;9.060;2023-02-15T09:20:40;3.60;92.90
30379;DHT22;17168;49.164;9.060;2023-02-15T09:23:12;3.60;92.90
30379;DHT22;17168;49.164;9.060;2023-02-15T09:26:02;3.60;92.90
30379;DHT22;17168;49.164;9.060;2023-02-15T09:28:35;3.60;92.80
30379;DHT22;17168;49.164;9.060;2023-02-15T09:31:09;3.60;92.60
30379;DHT22;17168;49.164;9.060;2023-02-15T09:33:43;3.60;92.80
30379;DHT22;17168;49.164;9.060;2023-02-15T09:36:19;3.60;92.90
30379;DHT22;17168;49.164;9.060;2023-02-15T09:38:56;3.60;93.00
30379;DHT22;17168;49.164;9.060;2023-02-15T09:41:48;3.60;93.10
30379;DHT22;17168;49.164;9.060;2023-02-15T09:44:33;3.70;93.30
30379;DHT22;17168;49.164;9.060;2023-02-15T09:47:24;3.70;93.30
30379;DHT22;17168;49.164;9.060;2023-02-15T09:50:06;3.80;93.40
30379;DHT22;17168;49.164;9.060;2023-02-15T09:52:56;3.80;93.40
30379;DHT22;17168;49.164;9.060;2023-02-15T09:55:44;3.80;93.40
30379;DHT22;17168;49.164;9.060;2023-02-15T09:58:21;3.80;93.40
30379;DHT22;17168;49.164;9.060;2023-02-15T10:01:03;3.90;93.40
30379;DHT22;17168;49.164;9.060;2023-02-15T10:03:45;3.90;93.40
30379;DHT22;17168;49.164;9.060;2023-02-15T10:06:38;4.00;93.50
30379;DHT22;17168;49.164;9.060;2023-02-15T10:09:26;4.00;93.40
30379;DHT22;17168;49.164;9.060;2023-02-15T10:12:30;4.00;93.50
30379;DHT22;17168;49.164;9.060;2023-02-15T10:15:07;4.10;93.60
30379;DHT22;17168;49.164;9.060;2023-02-15T10:17:54;4.10;93.30
30379;DHT22;17168;49.164;9.060;2023-02-15T10:20:35;4.10;93.30
30379;DHT22;17168;49.164;9.060;2023-02-15T10:23:22;4.10;93.30
30379;DHT22;17168;49.164;9.060;2023-02-15T10:26:05;4.10;93.30
30379;DHT22;17168;49.164;9.060;2023-02-15T10:28:44;4.10;93.30
30379;DHT22;17168;49.164;9.060;2023-02-15T10:31:24;4.10;93.40
30379;DHT22;17168;49.164;9.060;2023-02-15T10:34:08;4.20;93.40
30379;DHT22;17168;49.164;9.060;2023-02-15T10:37:07;4.20;93.50
30379;DHT22;17168;49.164;9.060;2023-02-15T10:39:52;4.30;93.50
30379;DHT22;17168;49.164;9.060;2023-02-15T10:42:36;4.30;93.40
30379;DHT22;17168;49.164;9.060;2023-02-15T10:45:19;4.30;93.50
30379;DHT22;17168;49.164;9.060;2023-02-15T10:48:11;4.40;93.50
30379;DHT22;17168;49.164;9.060;2023-02-15T10:50:50;4.40;93.50
30379;DHT22;17168;49.164;9.060;2023-02-15T10:53:36;4.40;93.40
30379;DHT22;17168;49.164;9.060;2023-02-15T10:56:18;4.40;93.50
30379;DHT22;17168;49.164;9.060;2023-02-15T10:59:10;4.50;93.50
30379;DHT22;17168;49.164;9.060;2023-02-15T11:01:50;4.50;93.50
30379;DHT22;17168;49.164;9.060;2023-02-15T11:04:45;4.50;93.40
30379;DHT22;17168;49.164;9.060;2023-02-15T11:07:23;4.50;93.50
30379;DHT22;17168;49.164;9.060;2023-02-15T11:10:01;4.60;93.50
30379;DHT22;17168;49.164;9.060;2023-02-15T11:12:37;4.70;93.60
30379;DHT22;17168;49.164;9.060;2023-02-15T11:15:18;4.70;93.60
30379;DHT22;17168;49.164;9.060;2023-02-15T11:17:55;4.70;93.60
30379;DHT22;17168;49.164;9.060;2023-02-15T11:20:30;4.80;93.60
30379;DHT22;17168;49.164;9.060;2023-02-15T11:23:12;4.80;93.60
30379;DHT22;17168;49.164;9.060;2023-02-15T11:25:47;4.90;93.70
30379;DHT22;17168;49.164;9.060;2023-02-15T11:28:24;4.90;93.70
30379;DHT22;17168;49.164;9.060;2023-02-15T11:31:02;4.90;93.50
30379;DHT22;17168;49.164;9.060;2023-02-15T11:33:35;4.90;93.40
30379;DHT22;17168;49.164;9.060;2023-02-15T11:36:09;4.90;93.40
30379;DHT22;17168;49.164;9.060;2023-02-15T11:38:43;5.00;93.50
30379;DHT22;17168;49.164;9.060;2023-02-15T11:41:17;5.00;93.50
30379;DHT22;17168;49.164;9.060;2023-02-15T11:43:52;5.00;93.40
30379;DHT22;17168;49.164;9.060;2023-02-15T11:46:27;4.90;93.20
30379;DHT22;17168;49.164;9.060;2023-02-15T11:49:00;4.90;93.30
30379;DHT22;17168;49.164;9.060;2023-02-15T11:51:32;4.90;93.40
30379;DHT22;17168;49.164;9.060;2023-02-15T11:54:04;4.90;93.50
30379;DHT22;17168;49.164;9.060;2023-02-15T11:56:36;5.00;93.60
30379;DHT22;17168;49.164;9.060;2023-02-15T11:59:09;5.00;93.70
30379;DHT22;17168;49.164;9.060;2023-02-15T12:01:45;5.10;93.70
30379;DHT22;17168;49.164;9.060;2023-02-15T12:04:21;5.20;93.90
30379;DHT22;17168;49.164;9.060;2023-02-15T12:06:57;5.30;94.00
30379;DHT22;17168;49.164;9.060;2023-02-15T12:09:33;5.40;94.10
30379;DHT22;17168;49.164;9.060;2023-02-15T12:12:22;5.40;94.00
30379;DHT22;17168;49.164;9.060;2023-02-15T12:14:55;5.40;93.90
30379;DHT22;17168;49.164;9.060;2023-02-15T12:17:31;5.50;93.90
30379;DHT22;17168;49.164;9.060;2023-02-15T12:20:04;5.70;94.50
30379;DHT22;17168;49.164;9.060;2023-02-15T12:22:38;5.90;94.80
30379;DHT22;17168;49.164;9.060;2023-02-15T12:25:19;6.10;95.00
30379;DHT22;17168;49.164;9.060;2023-02-15T12:27:52;6.40;95.00
30379;DHT22;17168;49.164;9.060;2023-02-15T12:30:29;6.50;94.80
30379;DHT22;17168;49.164;9.060;2023-02-15T12:33:13;6.70;94.40
30379;DHT22;17168;49.164;9.060;2023-02-15T12:35:47;6.70;94.00
30379;DHT22;17168;49.164;9.060;2023-02-15T12:38:27;6.70;93.60
30379;DHT22;17168;49.164;9.060;2023-02-15T12:41:02;6.70;93.50
30379;DHT22;17168;49.164;9.060;2023-02-15T12:43:35;6.70;93.40
30379;DHT22;17168;49.164;9.060;2023-02-15T12:46:13;6.70;93.30
30379;DHT22;17168;49.164;9.060;2023-02-15T12:49:02;6.70;93.20
30379;DHT22;17168;49.164;9.060;2023-02-15T12:51:47;6.70;93.10
30379;DHT22;17168;49.164;9.060;2023-02-15T12:54:30;6.80;93.40
30379;DHT22;17168;49.164;9.060;2023-02-15T12:57:24;6.90;93.30
30379;DHT22;17168;49.164;9.060;2023-02-15T12:59:58;6.90;93.30
30379;DHT22;17168;49.164;9.060;2023-02-15T13:02:35;7.30;94.00
30379;DHT22;17168;49.164;9.060;2023-02-15T13:05:19;7.70;94.60
30379;DHT22;17168;49.164;9.060;2023-02-15T13:07:57;8.40;95.50
30379;DHT22;17168;49.164;9.060;2023-02-15T13:10:35;9.10;95.30
30379;DHT22;17168;49.164;9.060;2023-02-15T13:13:10;9.80;94.80
30379;DHT22;17168;49.164;9.060;2023-02-15T13:15:44;10.40;94.10
30379;DHT22;17168;49.164;9.060;2023-02-15T13:18:23;11.00;94.00
30379;DHT22;17168;49.164;9.060;2023-02-15T13:21:09;11.70;93.30
30379;DHT22;17168;49.164;9.060;2023-02-15T13:23:42;12.30;92.20
30379;DHT22;17168;49.164;9.060;2023-02-15T13:26:18;12.90;91.10
30379;DHT22;17168;49.164;9.060;2023-02-15T13:28:55;13.30;89.10
30379;DHT22;17168;49.164;9.060;2023-02-15T13:31:29;13.70;87.40
30379;DHT22;17168;49.164;9.060;2023-02-15T13:34:09;14.10;86.10
30379;DHT22;17168;49.164;9.060;2023-02-15T13:36:47;14.40;84.30
30379;DHT22;17168;49.164;9.060;2023-02-15T13:39:26;14.70;84.20
30379;DHT22;17168;49.164;9.060;2023-02-15T13:42:00;15.00;83.40
30379;DHT22;17168;49.164;9.060;2023-02-15T13:44:55;15.20;82.90
30379;DHT22;17168;49.164;9.060;2023-02-15T13:47:34;15.50;82.40
30379;DHT22;17168;49.164;9.060;2023-02-15T13:50:19;15.80;81.40
30379;DHT22;17168;49.164;9.060;2023-02-15T13:53:16;16.00;80.10
30379;DHT22;17168;49.164;9.060;2023-02-15T13:55:53;16.30;78.80
30379;DHT22;17168;49.164;9.060;2023-02-15T13:58:42;16.50;78.00
30379;DHT22;17168;49.164;9.060;2023-02-15T14:01:21;16.60;77.40
30379;DHT22;17168;49.164;9.060;2023-02-15T14:06:45;17.00;76.00
30379;DHT22;17168;49.164;9.060;2023-02-15T14:09:24;17.00;75.50
30379;DHT22;17168;49.164;9.060;2023-02-15T14:12:09;17.00;73.30
30379;DHT22;17168;49.164;9.060;2023-02-15T14:14:52;17.10;73.10
30379;DHT22;17168;49.164;9.060;2023-02-15T14:17:30;17.00;72.00
30379;DHT22;17168;49.164;9.060;2023-02-15T14:20:07;16.90;71.20
30379;DHT22;17168;49.164;9.060;2023-02-15T14:22:41;16.80;70.60
30379;DHT22;17168;49.164;9.060;2023-02-15T14:25:18;16.70;70.50
30379;DHT22;17168;49.164;9.060;2023-02-15T14:27:56;16.70;70.50
30379;DHT22;17168;49.164;9.060;2023-02-15T14:30:30;16.70;70.00
30379;DHT22;17168;49.164;9.060;2023-02-15T14:33:05;16.60;69.90
30379;DHT22;17168;49.164;9.060;2023-02-15T14:35:38;16.60;69.50
30379;DHT22;17168;49.164;9.060;2023-02-15T14:38:12;16.50;69.20
30379;DHT22;17168;49.164;9.060;2023-02-15T14:40:50;16.50;68.70
30379;DHT22;17168;49.164;9.060;2023-02-15T14:43:41;16.30;68.40
30379;DHT22;17168;49.164;9.060;2023-02-15T14:46:21;16.10;68.10
30379;DHT22;17168;49.164;9.060;2023-02-15T14:48:57;15.70;67.90
30379;DHT22;17168;49.164;9.060;2023-02-15T14:51:58;15.30;68.10
30379;DHT22;17168;49.164;9.060;2023-02-15T14:57:34;14.60;67.80
30379;DHT22;17168;49.164;9.060;2023-02-15T15:00:31;14.20;67.80
30379;DHT22;17168;49.164;9.060;2023-02-15T15:06:02;13.50;68.40
30379;DHT22;17168;49.164;9.060;2023-02-15T15:08:38;13.00;68.60
30379;DHT22;17168;49.164;9.060;2023-02-15T15:11:43;12.60;69.00
30379;DHT22;17168;49.164;9.060;2023-02-15T15:14:39;12.30;69.40
30379;DHT22;17168;49.164;9.060;2023-02-15T15:17:12;12.10;69.70
30379;DHT22;17168;49.164;9.060;2023-02-15T15:20:03;11.80;70.10
30379;DHT22;17168;49.164;9.060;2023-02-15T15:22:36;11.50;70.40
30379;DHT22;17168;49.164;9.060;2023-02-15T15:25:09;11.30;70.90
30379;DHT22;17168;49.164;9.060;2023-02-15T15:27:52;11.10;71.10
30379;DHT22;17168;49.164;9.060;2023-02-15T15:33:17;10.80;71.50
30379;DHT22;17168;49.164;9.060;2023-02-15T15:36:12;10.70;71.80
30379;DHT22;17168;49.164;9.060;2023-02-15T15:39:00;10.60;72.00
30379;DHT22;17168;49.164;9.060;2023-02-15T15:41:41;10.50;72.20
30379;DHT22;17168;49.164;9.060;2023-02-15T15:47:31;10.20;72.60
30379;DHT22;17168;49.164;9.060;2023-02-15T15:50:12;10.20;72.90
30379;DHT22;17168;49.164;9.060;2023-02-15T15:52:46;10.10;73.00
30379;DHT22;17168;49.164;9.060;2023-02-15T15:55:19;10.10;73.20
30379;DHT22;17168;49.164;9.060;2023-02-15T15:57:52;10.00;73.30
30379;DHT22;17168;49.164;9.060;2023-02-15T16:00:27;9.90;73.30
30379;DHT22;17168;49.164;9.060;2023-02-15T16:03:02;9.80;73.40
30379;DHT22;17168;49.164;9.060;2023-02-15T16:05:38;9.80;73.60
30379;DHT22;17168;49.164;9.060;2023-02-15T16:08:10;9.70;73.70
30379;DHT22;17168;49.164;9.060;2023-02-15T16:10:43;9.70;73.90
30379;DHT22;17168;49.164;9.060;2023-02-15T16:13:15;9.60;74.00
30379;DHT22;17168;49.164;9.060;2023-02-15T16:15:49;9.60;74.00
30379;DHT22;17168;49.164;9.060;2023-02-15T16:18:26;9.60;74.00
30379;DHT22;17168;49.164;9.060;2023-02-15T16:21:01;9.60;74.00
30379;DHT22;17168;49.164;9.060;2023-02-15T16:23:52;9.50;73.90
30379;DHT22;17168;49.164;9.060;2023-02-15T16:26:44;9.50;73.90
30379;DHT22;17168;49.164;9.060;2023-02-15T16:29:28;9.40;73.90
30379;DHT22;17168;49.164;9.060;2023-02-15T16:32:02;9.30;73.90
30379;DHT22;17168;49.164;9.060;2023-02-15T16:34:34;9.20;74.30
30379;DHT22;17168;49.164;9.060;2023-02-15T16:37:16;9.10;73.80
30379;DHT22;17168;49.164;9.060;2023-02-15T16:39:49;9.10;73.90
30379;DHT22;17168;49.164;9.060;2023-02-15T16:42:22;9.00;73.70
30379;DHT22;17168;49.164;9.060;2023-02-15T16:44:59;8.90;73.50
30379;DHT22;17168;49.164;9.060;2023-02-15T16:47:33;8.80;73.60
30379;DHT22;17168;49.164;9.060;2023-02-15T16:50:17;8.70;73.50
30379;DHT22;17168;49.164;9.060;2023-02-15T16:52:53;8.60;73.40
30379;DHT22;17168;49.164;9.060;2023-02-15T16:55:27;8.50;73.30
30379;DHT22;17168;49.164;9.060;2023-02-15T16:58:02;8.30;73.10
30379;DHT22;17168;49.164;9.060;2023-02-15T17:00:37;8.20;73.10
30379;DHT22;17168;49.164;9.060;2023-02-15T17:03:21;8.10;73.00
30379;DHT22;17168;49.164;9.060;2023-02-15T17:05:56;8.00;73.00
30379;DHT22;17168;49.164;9.060;2023-02-15T17:08:32;7.90;72.80
30379;DHT22;17168;49.164;9.060;2023-02-15T17:11:14;7.80;72.70
30379;DHT22;17168;49.164;9.060;2023-02-15T17:14:11;7.70;72.70
30379;DHT22;17168;49.164;9.060;2023-02-15T17:16:48;7.60;72.90
30379;DHT22;17168;49.164;9.060;2023-02-15T17:19:24;7.50;72.90
30379;DHT22;17168;49.164;9.060;2023-02-15T17:21:59;7.40;72.90